This is the latest recevied weather packets stored in our database for station/object KJ5FA-10. If no packets are shown the sender has not sent any weather packets the latest 10 day(s).
| Time | Temp. | Humidity | Pressure | Rain* | Wind** | Luminosity | Snow |
|---|---|---|---|---|---|---|---|
| 1788389665 | 35.56° C | 44% | 1014.5 hPa | 0 mm | - | - | - |
| 1788388764 | 35.56° C | 43% | 1014.4 hPa | 0 mm | - | - | - |
| 1788387864 | 36.11° C | 41% | 1014.4 hPa | 0 mm | - | - | - |
| 1788386964 | 36.67° C | 40% | 1014.5 hPa | 0 mm | - | - | - |
| 1788386064 | 37.22° C | 39% | 1014.7 hPa | 0 mm | - | - | - |
| 1788385164 | 36.67° C | 42% | 1014.8 hPa | 0 mm | - | - | - |
| 1788384264 | 36.67° C | 42% | 1015.2 hPa | 0 mm | - | - | - |
| 1788383364 | 36.11° C | 44% | 1015.2 hPa | 0 mm | - | - | - |
| 1788382464 | 35.56° C | 45% | 1015.4 hPa | 0 mm | - | - | - |
| 1788381565 | 36.67° C | 44% | 1015.7 hPa | 0 mm | - | - | - |
| 1788380664 | 37.22° C | 41% | 1015.6 hPa | 0 mm | - | - | - |
| 1788379764 | 36.67° C | 44% | 1015.5 hPa | 0 mm | - | - | - |
| 1788378864 | 36.11° C | 45% | 1015.9 hPa | 0 mm | - | - | - |
| 1788377964 | 35° C | 48% | 1015.9 hPa | 0 mm | - | - | - |
| 1788377064 | 35.56° C | 47% | 1016.5 hPa | 0 mm | - | - | - |
| 1788376164 | 36.11° C | 46% | 1016.1 hPa | 0 mm | - | - | - |
| 1788374364 | 35° C | 48% | 1016.9 hPa | 0 mm | - | - | - |
| 1788373464 | 35.56° C | 46% | 1017 hPa | 0 mm | - | - | - |
| 1788372565 | 35.56° C | 47% | 1017.5 hPa | 0 mm | - | - | - |
| 1788371665 | 35.56° C | 45% | 1017.7 hPa | 0 mm | - | - | - |
| 1788370765 | 35° C | 49% | 1018 hPa | 0 mm | - | - | - |
| 1788368965 | 35° C | 48% | 1018.2 hPa | 0 mm | - | - | - |
| 1788368064 | 33.33° C | 55% | 1018.5 hPa | 0 mm | - | - | - |
| 1788367165 | 32.78° C | 57% | 1018.5 hPa | 0 mm | - | - | - |
| 1788365365 | 31.67° C | 59% | 1019.1 hPa | 0 mm | - | - | - |
* Rain latest hour (hover to see other rain measurements)
** Current wind speed in m/s (hover to see current wind gust speed)